Carpenter, South Dakota
Current Conditions -  °F | °C
As of 9:55 PM on Thursday 27 Nov 2014 (Local Time) from KHON Reporting Station
Broken Clouds Broken Clouds  
Wind Chill:   Ceiling: 12000
Heat Index: 17°   Visibility: 10mi
Dew Point: 10°   Wind: 16mph
Humidity: 74%   Direction: 160°SSE
Pressure: 29.97"   Gusts: 23mph
Location:  44.64°N, 97.92°W
Report Text: KHON 280355Z AUTO 16014G20KT 10SM BKN120 M08/M12 A2997 RMK AO2 PK WND 15028/0258 SLP178 T10831122
Loading
Personal Weather Stations






























Interactive Weather Map New forecast layout! Learn more

10-Day Weather Forecast

Advertisements
Track Severe Weather on mobile